sensor_id;sensor_type;location;lat;lon;timestamp;temperature;humidity
60701;DHT22;46541;49.894;10.886;2023-05-10T00:00:20;17.30;74.60
60701;DHT22;46541;49.894;10.886;2023-05-10T00:02:49;17.20;77.90
60701;DHT22;46541;49.894;10.886;2023-05-10T00:05:15;17.20;78.60
60701;DHT22;46541;49.894;10.886;2023-05-10T00:07:42;17.30;80.70
60701;DHT22;46541;49.894;10.886;2023-05-10T00:10:11;17.30;84.30
60701;DHT22;46541;49.894;10.886;2023-05-10T00:12:38;17.30;85.70
60701;DHT22;46541;49.894;10.886;2023-05-10T00:15:05;17.30;88.30
60701;DHT22;46541;49.894;10.886;2023-05-10T00:17:32;17.20;89.70
60701;DHT22;46541;49.894;10.886;2023-05-10T00:19:59;17.20;91.00
60701;DHT22;46541;49.894;10.886;2023-05-10T00:22:26;17.20;91.60
60701;DHT22;46541;49.894;10.886;2023-05-10T00:24:53;17.20;92.00
60701;DHT22;46541;49.894;10.886;2023-05-10T00:27:20;17.10;92.60
60701;DHT22;46541;49.894;10.886;2023-05-10T00:29:47;17.10;93.60
60701;DHT22;46541;49.894;10.886;2023-05-10T00:32:13;17.10;93.80
60701;DHT22;46541;49.894;10.886;2023-05-10T00:34:40;17.00;94.60
60701;DHT22;46541;49.894;10.886;2023-05-10T00:37:07;17.00;95.20
60701;DHT22;46541;49.894;10.886;2023-05-10T00:39:33;17.00;96.50
60701;DHT22;46541;49.894;10.886;2023-05-10T00:42:00;17.00;96.60
60701;DHT22;46541;49.894;10.886;2023-05-10T00:44:27;17.00;96.60
60701;DHT22;46541;49.894;10.886;2023-05-10T00:46:54;17.00;96.90
60701;DHT22;46541;49.894;10.886;2023-05-10T00:49:21;16.90;96.40
60701;DHT22;46541;49.894;10.886;2023-05-10T00:51:48;16.90;96.20
60701;DHT22;46541;49.894;10.886;2023-05-10T00:54:15;16.80;95.80
60701;DHT22;46541;49.894;10.886;2023-05-10T00:56:42;16.80;96.40
60701;DHT22;46541;49.894;10.886;2023-05-10T00:59:16;16.70;96.20
60701;DHT22;46541;49.894;10.886;2023-05-10T01:01:47;16.60;96.20
60701;DHT22;46541;49.894;10.886;2023-05-10T01:04:14;16.60;96.60
60701;DHT22;46541;49.894;10.886;2023-05-10T01:06:42;16.50;97.10
60701;DHT22;46541;49.894;10.886;2023-05-10T01:09:09;16.50;97.90
60701;DHT22;46541;49.894;10.886;2023-05-10T01:11:38;16.40;98.50
60701;DHT22;46541;49.894;10.886;2023-05-10T01:14:05;16.40;99.70
60701;DHT22;46541;49.894;10.886;2023-05-10T01:16:36;16.40;99.90
60701;DHT22;46541;49.894;10.886;2023-05-10T01:19:12;16.30;99.90
60701;DHT22;46541;49.894;10.886;2023-05-10T01:21:49;16.30;99.90
60701;DHT22;46541;49.894;10.886;2023-05-10T01:27:34;16.20;99.90
60701;DHT22;46541;49.894;10.886;2023-05-10T01:31:00;16.20;99.90
60701;DHT22;46541;49.894;10.886;2023-05-10T01:33:21;16.10;99.90
60701;DHT22;46541;49.894;10.886;2023-05-10T01:38:42;15.90;99.90
60701;DHT22;46541;49.894;10.886;2023-05-10T01:41:14;15.90;99.90
60701;DHT22;46541;49.894;10.886;2023-05-10T01:43:53;15.90;99.90
60701;DHT22;46541;49.894;10.886;2023-05-10T01:46:28;15.90;99.90
60701;DHT22;46541;49.894;10.886;2023-05-10T01:48:58;15.80;99.90
60701;DHT22;46541;49.894;10.886;2023-05-10T01:51:30;15.80;99.90
60701;DHT22;46541;49.894;10.886;2023-05-10T01:54:02;15.80;99.90
60701;DHT22;46541;49.894;10.886;2023-05-10T01:56:32;15.80;99.90
60701;DHT22;46541;49.894;10.886;2023-05-10T01:59:00;15.80;99.90
60701;DHT22;46541;49.894;10.886;2023-05-10T02:01:27;15.80;99.90
60701;DHT22;46541;49.894;10.886;2023-05-10T02:03:55;15.80;99.90
60701;DHT22;46541;49.894;10.886;2023-05-10T02:06:23;15.80;99.90
60701;DHT22;46541;49.894;10.886;2023-05-10T02:08:52;15.80;99.90
60701;DHT22;46541;49.894;10.886;2023-05-10T02:11:20;15.90;99.90
60701;DHT22;46541;49.894;10.886;2023-05-10T02:13:49;15.90;99.90
60701;DHT22;46541;49.894;10.886;2023-05-10T02:16:16;15.90;99.90
60701;DHT22;46541;49.894;10.886;2023-05-10T02:18:45;15.90;99.90
60701;DHT22;46541;49.894;10.886;2023-05-10T02:21:13;15.90;99.90
60701;DHT22;46541;49.894;10.886;2023-05-10T02:23:41;15.90;99.90
60701;DHT22;46541;49.894;10.886;2023-05-10T02:26:08;16.00;99.90
60701;DHT22;46541;49.894;10.886;2023-05-10T02:28:36;15.90;99.90
60701;DHT22;46541;49.894;10.886;2023-05-10T02:31:05;15.90;99.90
60701;DHT22;46541;49.894;10.886;2023-05-10T02:33:33;15.90;99.90
60701;DHT22;46541;49.894;10.886;2023-05-10T02:36:02;15.90;99.90
60701;DHT22;46541;49.894;10.886;2023-05-10T02:38:31;16.00;99.90
60701;DHT22;46541;49.894;10.886;2023-05-10T02:40:59;16.00;99.90
60701;DHT22;46541;49.894;10.886;2023-05-10T02:43:28;16.00;99.90
60701;DHT22;46541;49.894;10.886;2023-05-10T02:45:57;16.00;99.90
60701;DHT22;46541;49.894;10.886;2023-05-10T02:48:24;16.00;99.90
60701;DHT22;46541;49.894;10.886;2023-05-10T02:50:52;15.90;99.90
60701;DHT22;46541;49.894;10.886;2023-05-10T02:53:23;15.90;99.90
60701;DHT22;46541;49.894;10.886;2023-05-10T02:55:59;15.90;99.90
60701;DHT22;46541;49.894;10.886;2023-05-10T02:58:27;15.80;99.90
60701;DHT22;46541;49.894;10.886;2023-05-10T03:00:53;15.80;99.90
60701;DHT22;46541;49.894;10.886;2023-05-10T03:03:20;15.80;99.90
60701;DHT22;46541;49.894;10.886;2023-05-10T03:05:47;15.80;99.90
60701;DHT22;46541;49.894;10.886;2023-05-10T03:08:14;15.80;99.90
60701;DHT22;46541;49.894;10.886;2023-05-10T03:13:33;15.70;99.90
60701;DHT22;46541;49.894;10.886;2023-05-10T03:16:14;15.70;99.90
60701;DHT22;46541;49.894;10.886;2023-05-10T03:21:52;15.70;99.90
60701;DHT22;46541;49.894;10.886;2023-05-10T03:24:23;15.70;99.90
60701;DHT22;46541;49.894;10.886;2023-05-10T03:26:55;15.70;99.90
60701;DHT22;46541;49.894;10.886;2023-05-10T03:29:25;15.70;99.90
60701;DHT22;46541;49.894;10.886;2023-05-10T03:31:52;15.70;99.90
60701;DHT22;46541;49.894;10.886;2023-05-10T03:34:24;15.70;99.90
60701;DHT22;46541;49.894;10.886;2023-05-10T03:36:50;15.60;99.90
60701;DHT22;46541;49.894;10.886;2023-05-10T03:39:17;15.70;99.90
60701;DHT22;46541;49.894;10.886;2023-05-10T03:41:44;15.60;99.90
60701;DHT22;46541;49.894;10.886;2023-05-10T03:44:11;15.50;99.90
60701;DHT22;46541;49.894;10.886;2023-05-10T03:46:38;15.50;99.90
60701;DHT22;46541;49.894;10.886;2023-05-10T03:49:04;15.40;99.90
60701;DHT22;46541;49.894;10.886;2023-05-10T03:51:32;15.40;99.90
60701;DHT22;46541;49.894;10.886;2023-05-10T03:53:58;15.40;99.90
60701;DHT22;46541;49.894;10.886;2023-05-10T03:56:25;15.40;99.90
60701;DHT22;46541;49.894;10.886;2023-05-10T03:58:52;15.40;99.90
60701;DHT22;46541;49.894;10.886;2023-05-10T04:01:18;15.40;99.90
60701;DHT22;46541;49.894;10.886;2023-05-10T04:03:45;15.50;99.90
60701;DHT22;46541;49.894;10.886;2023-05-10T04:06:12;15.40;99.90
60701;DHT22;46541;49.894;10.886;2023-05-10T04:08:39;15.40;99.90
60701;DHT22;46541;49.894;10.886;2023-05-10T04:11:09;15.40;99.90
60701;DHT22;46541;49.894;10.886;2023-05-10T04:13:38;15.40;99.90
60701;DHT22;46541;49.894;10.886;2023-05-10T04:16:05;15.40;99.90
60701;DHT22;46541;49.894;10.886;2023-05-10T04:18:31;15.50;99.90
60701;DHT22;46541;49.894;10.886;2023-05-10T04:20:58;15.50;99.90
60701;DHT22;46541;49.894;10.886;2023-05-10T04:23:25;15.50;99.90
60701;DHT22;46541;49.894;10.886;2023-05-10T04:25:52;15.50;99.90
60701;DHT22;46541;49.894;10.886;2023-05-10T04:28:19;15.50;99.90
60701;DHT22;46541;49.894;10.886;2023-05-10T04:30:45;15.50;99.90
60701;DHT22;46541;49.894;10.886;2023-05-10T04:33:12;15.50;99.90
60701;DHT22;46541;49.894;10.886;2023-05-10T04:35:39;15.50;99.90
60701;DHT22;46541;49.894;10.886;2023-05-10T04:38:06;15.60;99.90
60701;DHT22;46541;49.894;10.886;2023-05-10T04:40:33;15.60;99.90
60701;DHT22;46541;49.894;10.886;2023-05-10T04:43:00;15.60;99.90
60701;DHT22;46541;49.894;10.886;2023-05-10T04:45:27;15.70;99.90
60701;DHT22;46541;49.894;10.886;2023-05-10T04:47:54;15.70;99.90
60701;DHT22;46541;49.894;10.886;2023-05-10T04:50:20;15.70;99.90
60701;DHT22;46541;49.894;10.886;2023-05-10T04:52:47;15.60;99.90
60701;DHT22;46541;49.894;10.886;2023-05-10T04:55:14;15.60;99.90
60701;DHT22;46541;49.894;10.886;2023-05-10T04:57:40;15.60;99.90
60701;DHT22;46541;49.894;10.886;2023-05-10T05:00:08;15.50;99.90
60701;DHT22;46541;49.894;10.886;2023-05-10T05:02:34;15.40;99.90
60701;DHT22;46541;49.894;10.886;2023-05-10T05:05:01;15.50;99.90
60701;DHT22;46541;49.894;10.886;2023-05-10T05:07:28;15.50;99.90
60701;DHT22;46541;49.894;10.886;2023-05-10T05:09:56;15.50;99.90
60701;DHT22;46541;49.894;10.886;2023-05-10T05:12:23;15.50;99.90
60701;DHT22;46541;49.894;10.886;2023-05-10T05:14:50;15.50;99.90
60701;DHT22;46541;49.894;10.886;2023-05-10T05:17:16;15.50;99.90
60701;DHT22;46541;49.894;10.886;2023-05-10T05:19:43;15.60;99.90
60701;DHT22;46541;49.894;10.886;2023-05-10T05:22:10;15.70;99.90
60701;DHT22;46541;49.894;10.886;2023-05-10T05:24:37;15.70;99.90
60701;DHT22;46541;49.894;10.886;2023-05-10T05:27:06;15.70;99.90
60701;DHT22;46541;49.894;10.886;2023-05-10T05:29:33;15.80;99.90
60701;DHT22;46541;49.894;10.886;2023-05-10T05:32:00;15.90;99.90
60701;DHT22;46541;49.894;10.886;2023-05-10T05:34:27;15.90;99.90
60701;DHT22;46541;49.894;10.886;2023-05-10T05:36:54;16.00;99.90
60701;DHT22;46541;49.894;10.886;2023-05-10T05:39:20;16.00;99.90
60701;DHT22;46541;49.894;10.886;2023-05-10T05:41:47;16.10;99.90
60701;DHT22;46541;49.894;10.886;2023-05-10T05:44:14;16.20;99.90
60701;DHT22;46541;49.894;10.886;2023-05-10T05:46:41;16.20;99.90
60701;DHT22;46541;49.894;10.886;2023-05-10T05:49:07;16.10;99.90
60701;DHT22;46541;49.894;10.886;2023-05-10T05:51:34;16.20;99.90
60701;DHT22;46541;49.894;10.886;2023-05-10T05:54:02;16.20;99.90
60701;DHT22;46541;49.894;10.886;2023-05-10T05:56:30;16.20;99.90
60701;DHT22;46541;49.894;10.886;2023-05-10T05:58:57;16.30;99.90
60701;DHT22;46541;49.894;10.886;2023-05-10T06:01:24;16.20;99.90
60701;DHT22;46541;49.894;10.886;2023-05-10T06:03:50;16.30;99.90
60701;DHT22;46541;49.894;10.886;2023-05-10T06:06:19;16.30;99.90
60701;DHT22;46541;49.894;10.886;2023-05-10T06:08:45;16.30;99.90
60701;DHT22;46541;49.894;10.886;2023-05-10T06:11:12;16.40;99.90
60701;DHT22;46541;49.894;10.886;2023-05-10T06:13:39;16.40;99.90
60701;DHT22;46541;49.894;10.886;2023-05-10T06:16:06;16.50;99.90
60701;DHT22;46541;49.894;10.886;2023-05-10T06:18:33;16.60;99.90
60701;DHT22;46541;49.894;10.886;2023-05-10T06:21:00;16.70;99.90
60701;DHT22;46541;49.894;10.886;2023-05-10T06:23:26;16.70;99.90
60701;DHT22;46541;49.894;10.886;2023-05-10T06:25:53;16.80;99.90
60701;DHT22;46541;49.894;10.886;2023-05-10T06:28:20;16.80;99.90
60701;DHT22;46541;49.894;10.886;2023-05-10T06:30:47;16.80;99.90
60701;DHT22;46541;49.894;10.886;2023-05-10T06:33:14;16.70;99.90
60701;DHT22;46541;49.894;10.886;2023-05-10T06:35:42;16.70;99.90
60701;DHT22;46541;49.894;10.886;2023-05-10T06:38:09;16.80;99.90
60701;DHT22;46541;49.894;10.886;2023-05-10T06:40:35;16.90;99.90
60701;DHT22;46541;49.894;10.886;2023-05-10T06:43:02;16.90;99.90
60701;DHT22;46541;49.894;10.886;2023-05-10T06:45:29;16.90;99.90
60701;DHT22;46541;49.894;10.886;2023-05-10T06:47:55;17.00;99.90
60701;DHT22;46541;49.894;10.886;2023-05-10T06:50:22;17.10;99.90
60701;DHT22;46541;49.894;10.886;2023-05-10T06:52:49;17.10;99.90
60701;DHT22;46541;49.894;10.886;2023-05-10T06:55:18;17.20;99.90
60701;DHT22;46541;49.894;10.886;2023-05-10T06:57:45;17.30;99.90
60701;DHT22;46541;49.894;10.886;2023-05-10T07:00:12;17.40;99.90
60701;DHT22;46541;49.894;10.886;2023-05-10T07:02:39;17.40;99.90
60701;DHT22;46541;49.894;10.886;2023-05-10T07:05:06;17.40;99.90
60701;DHT22;46541;49.894;10.886;2023-05-10T07:07:33;17.40;99.90
60701;DHT22;46541;49.894;10.886;2023-05-10T07:10:00;17.40;99.90
60701;DHT22;46541;49.894;10.886;2023-05-10T07:12:26;17.40;99.90
60701;DHT22;46541;49.894;10.886;2023-05-10T07:14:53;17.50;99.90
60701;DHT22;46541;49.894;10.886;2023-05-10T07:17:20;17.70;99.90
60701;DHT22;46541;49.894;10.886;2023-05-10T07:19:47;17.90;99.90
60701;DHT22;46541;49.894;10.886;2023-05-10T07:22:15;18.00;99.90
60701;DHT22;46541;49.894;10.886;2023-05-10T07:24:42;18.00;99.90
60701;DHT22;46541;49.894;10.886;2023-05-10T07:27:09;18.10;99.90
60701;DHT22;46541;49.894;10.886;2023-05-10T07:29:36;18.10;99.90
60701;DHT22;46541;49.894;10.886;2023-05-10T07:32:04;18.20;99.90
60701;DHT22;46541;49.894;10.886;2023-05-10T07:34:31;18.20;99.90
60701;DHT22;46541;49.894;10.886;2023-05-10T07:36:58;18.30;99.90
60701;DHT22;46541;49.894;10.886;2023-05-10T07:39:28;18.30;99.90
60701;DHT22;46541;49.894;10.886;2023-05-10T07:41:55;18.50;99.90
60701;DHT22;46541;49.894;10.886;2023-05-10T07:44:23;18.60;99.90
60701;DHT22;46541;49.894;10.886;2023-05-10T07:46:49;18.60;99.90
60701;DHT22;46541;49.894;10.886;2023-05-10T07:49:16;18.70;99.90
60701;DHT22;46541;49.894;10.886;2023-05-10T07:51:43;18.60;99.90
60701;DHT22;46541;49.894;10.886;2023-05-10T07:54:10;18.60;99.90
60701;DHT22;46541;49.894;10.886;2023-05-10T07:56:37;18.70;99.90
60701;DHT22;46541;49.894;10.886;2023-05-10T07:59:04;18.70;99.90
60701;DHT22;46541;49.894;10.886;2023-05-10T08:01:33;18.80;99.90
60701;DHT22;46541;49.894;10.886;2023-05-10T08:04:01;18.80;99.90
60701;DHT22;46541;49.894;10.886;2023-05-10T08:06:28;18.70;99.90
60701;DHT22;46541;49.894;10.886;2023-05-10T08:08:56;18.60;99.90
60701;DHT22;46541;49.894;10.886;2023-05-10T08:11:23;18.50;99.90
60701;DHT22;46541;49.894;10.886;2023-05-10T08:13:50;18.60;99.90
60701;DHT22;46541;49.894;10.886;2023-05-10T08:16:17;18.50;99.90
60701;DHT22;46541;49.894;10.886;2023-05-10T08:18:44;18.50;99.90
60701;DHT22;46541;49.894;10.886;2023-05-10T08:21:13;18.40;99.90
60701;DHT22;46541;49.894;10.886;2023-05-10T08:23:40;18.50;99.90
60701;DHT22;46541;49.894;10.886;2023-05-10T08:26:07;18.60;99.90
60701;DHT22;46541;49.894;10.886;2023-05-10T08:28:34;18.80;99.90
60701;DHT22;46541;49.894;10.886;2023-05-10T08:31:01;19.00;99.90
60701;DHT22;46541;49.894;10.886;2023-05-10T08:33:27;19.20;99.90
60701;DHT22;46541;49.894;10.886;2023-05-10T08:35:54;19.30;99.90
60701;DHT22;46541;49.894;10.886;2023-05-10T08:38:21;19.20;99.90
60701;DHT22;46541;49.894;10.886;2023-05-10T08:40:48;19.00;99.90
60701;DHT22;46541;49.894;10.886;2023-05-10T08:43:15;18.90;99.90
60701;DHT22;46541;49.894;10.886;2023-05-10T08:45:44;18.80;99.90
60701;DHT22;46541;49.894;10.886;2023-05-10T08:48:14;18.90;99.90
60701;DHT22;46541;49.894;10.886;2023-05-10T08:50:41;18.90;99.90
60701;DHT22;46541;49.894;10.886;2023-05-10T08:53:11;19.00;99.90
60701;DHT22;46541;49.894;10.886;2023-05-10T08:55:38;19.10;99.90
60701;DHT22;46541;49.894;10.886;2023-05-10T08:58:06;18.90;99.90
60701;DHT22;46541;49.894;10.886;2023-05-10T09:00:33;18.90;99.90
60701;DHT22;46541;49.894;10.886;2023-05-10T09:03:01;18.70;99.90
60701;DHT22;46541;49.894;10.886;2023-05-10T09:05:28;18.70;99.90
60701;DHT22;46541;49.894;10.886;2023-05-10T09:07:54;18.70;99.90
60701;DHT22;46541;49.894;10.886;2023-05-10T09:10:22;18.80;99.90
60701;DHT22;46541;49.894;10.886;2023-05-10T09:12:53;18.80;99.90
60701;DHT22;46541;49.894;10.886;2023-05-10T09:15:20;18.80;99.90
60701;DHT22;46541;49.894;10.886;2023-05-10T09:17:47;18.70;99.90
60701;DHT22;46541;49.894;10.886;2023-05-10T09:20:15;18.90;99.90
60701;DHT22;46541;49.894;10.886;2023-05-10T09:22:44;19.00;99.90
60701;DHT22;46541;49.894;10.886;2023-05-10T09:25:12;19.10;99.90
60701;DHT22;46541;49.894;10.886;2023-05-10T09:27:41;19.20;99.90
60701;DHT22;46541;49.894;10.886;2023-05-10T09:30:08;19.30;99.90
60701;DHT22;46541;49.894;10.886;2023-05-10T09:32:44;19.40;99.90
60701;DHT22;46541;49.894;10.886;2023-05-10T09:35:13;19.60;99.90
60701;DHT22;46541;49.894;10.886;2023-05-10T09:37:41;19.70;99.90
60701;DHT22;46541;49.894;10.886;2023-05-10T09:40:12;19.80;99.90
60701;DHT22;46541;49.894;10.886;2023-05-10T09:42:40;20.00;99.90
60701;DHT22;46541;49.894;10.886;2023-05-10T09:45:07;20.10;99.90
60701;DHT22;46541;49.894;10.886;2023-05-10T09:47:35;20.30;99.90
60701;DHT22;46541;49.894;10.886;2023-05-10T09:50:03;20.50;99.90
60701;DHT22;46541;49.894;10.886;2023-05-10T09:55:15;20.60;99.90
60701;DHT22;46541;49.894;10.886;2023-05-10T09:57:43;20.30;99.90
60701;DHT22;46541;49.894;10.886;2023-05-10T10:00:09;20.00;99.90
60701;DHT22;46541;49.894;10.886;2023-05-10T10:02:36;19.90;99.90
60701;DHT22;46541;49.894;10.886;2023-05-10T10:05:04;20.00;99.90
60701;DHT22;46541;49.894;10.886;2023-05-10T10:07:32;20.20;99.90
60701;DHT22;46541;49.894;10.886;2023-05-10T10:10:00;20.50;99.90
60701;DHT22;46541;49.894;10.886;2023-05-10T10:12:27;20.80;99.90
60701;DHT22;46541;49.894;10.886;2023-05-10T10:14:55;21.00;99.90
60701;DHT22;46541;49.894;10.886;2023-05-10T10:17:25;21.30;99.90
60701;DHT22;46541;49.894;10.886;2023-05-10T10:19:54;21.30;99.90
60701;DHT22;46541;49.894;10.886;2023-05-10T10:22:21;21.00;99.90
60701;DHT22;46541;49.894;10.886;2023-05-10T10:24:49;20.00;99.90
60701;DHT22;46541;49.894;10.886;2023-05-10T10:27:24;19.60;99.90
60701;DHT22;46541;49.894;10.886;2023-05-10T10:30:13;19.30;99.90
60701;DHT22;46541;49.894;10.886;2023-05-10T10:35:18;19.00;99.90
60701;DHT22;46541;49.894;10.886;2023-05-10T10:37:47;19.00;99.90
60701;DHT22;46541;49.894;10.886;2023-05-10T10:42:49;19.30;99.90
60701;DHT22;46541;49.894;10.886;2023-05-10T10:45:16;19.60;99.90
60701;DHT22;46541;49.894;10.886;2023-05-10T10:47:44;19.80;99.90
60701;DHT22;46541;49.894;10.886;2023-05-10T10:50:11;20.10;99.90
60701;DHT22;46541;49.894;10.886;2023-05-10T10:52:43;20.30;99.90
60701;DHT22;46541;49.894;10.886;2023-05-10T10:55:18;20.70;99.90
60701;DHT22;46541;49.894;10.886;2023-05-10T10:57:57;20.80;99.90
60701;DHT22;46541;49.894;10.886;2023-05-10T11:00:38;20.60;99.90
60701;DHT22;46541;49.894;10.886;2023-05-10T11:03:09;20.50;99.90
60701;DHT22;46541;49.894;10.886;2023-05-10T11:05:41;20.40;99.90
60701;DHT22;46541;49.894;10.886;2023-05-10T11:11:01;19.90;99.90
60701;DHT22;46541;49.894;10.886;2023-05-10T11:13:32;19.60;99.90
60701;DHT22;46541;49.894;10.886;2023-05-10T11:16:09;19.50;99.90
60701;DHT22;46541;49.894;10.886;2023-05-10T11:18:36;19.50;99.90
60701;DHT22;46541;49.894;10.886;2023-05-10T11:21:04;19.70;99.90
60701;DHT22;46541;49.894;10.886;2023-05-10T11:23:56;19.60;99.90
60701;DHT22;46541;49.894;10.886;2023-05-10T11:26:36;19.50;99.90
60701;DHT22;46541;49.894;10.886;2023-05-10T11:29:03;19.70;99.90
60701;DHT22;46541;49.894;10.886;2023-05-10T11:31:31;19.90;99.90
60701;DHT22;46541;49.894;10.886;2023-05-10T11:33:59;20.20;99.90
60701;DHT22;46541;49.894;10.886;2023-05-10T11:36:32;20.50;99.90
60701;DHT22;46541;49.894;10.886;2023-05-10T11:38:59;20.70;99.90
60701;DHT22;46541;49.894;10.886;2023-05-10T11:41:28;20.80;99.90
60701;DHT22;46541;49.894;10.886;2023-05-10T11:43:56;20.70;99.90
60701;DHT22;46541;49.894;10.886;2023-05-10T11:46:25;20.60;99.90
60701;DHT22;46541;49.894;10.886;2023-05-10T11:48:59;20.50;99.90
60701;DHT22;46541;49.894;10.886;2023-05-10T11:51:28;20.40;99.90
60701;DHT22;46541;49.894;10.886;2023-05-10T11:53:56;20.30;99.90
60701;DHT22;46541;49.894;10.886;2023-05-10T11:56:23;20.50;99.90
60701;DHT22;46541;49.894;10.886;2023-05-10T11:58:56;20.70;99.90
60701;DHT22;46541;49.894;10.886;2023-05-10T12:01:27;21.10;99.90
60701;DHT22;46541;49.894;10.886;2023-05-10T12:03:55;21.40;99.90
60701;DHT22;46541;49.894;10.886;2023-05-10T12:06:31;21.30;99.20
60701;DHT22;46541;49.894;10.886;2023-05-10T12:08:59;21.10;99.40
60701;DHT22;46541;49.894;10.886;2023-05-10T12:11:27;21.10;99.30
60701;DHT22;46541;49.894;10.886;2023-05-10T12:13:55;21.20;97.90
60701;DHT22;46541;49.894;10.886;2023-05-10T12:16:24;21.40;98.50
60701;DHT22;46541;49.894;10.886;2023-05-10T12:18:53;21.30;98.30
60701;DHT22;46541;49.894;10.886;2023-05-10T12:21:20;21.40;98.60
60701;DHT22;46541;49.894;10.886;2023-05-10T12:23:53;21.30;98.50
60701;DHT22;46541;49.894;10.886;2023-05-10T12:26:23;21.30;99.00
60701;DHT22;46541;49.894;10.886;2023-05-10T12:28:51;21.20;98.70
60701;DHT22;46541;49.894;10.886;2023-05-10T12:31:18;21.40;98.70
60701;DHT22;46541;49.894;10.886;2023-05-10T12:33:45;21.70;98.90
60701;DHT22;46541;49.894;10.886;2023-05-10T12:36:14;21.80;98.40
60701;DHT22;46541;49.894;10.886;2023-05-10T12:38:43;21.70;97.80
60701;DHT22;46541;49.894;10.886;2023-05-10T12:41:15;21.60;98.00
60701;DHT22;46541;49.894;10.886;2023-05-10T12:43:42;21.60;98.50
60701;DHT22;46541;49.894;10.886;2023-05-10T12:46:10;21.60;98.20
60701;DHT22;46541;49.894;10.886;2023-05-10T12:48:38;21.60;98.60
60701;DHT22;46541;49.894;10.886;2023-05-10T12:51:06;21.60;98.60
60701;DHT22;46541;49.894;10.886;2023-05-10T12:53:38;21.60;98.30
60701;DHT22;46541;49.894;10.886;2023-05-10T12:56:09;21.50;98.30
60701;DHT22;46541;49.894;10.886;2023-05-10T12:58:36;21.60;98.80
60701;DHT22;46541;49.894;10.886;2023-05-10T13:01:04;21.60;98.50
60701;DHT22;46541;49.894;10.886;2023-05-10T13:03:31;21.60;98.20
60701;DHT22;46541;49.894;10.886;2023-05-10T13:05:58;21.70;97.70
60701;DHT22;46541;49.894;10.886;2023-05-10T13:08:25;21.80;96.90
60701;DHT22;46541;49.894;10.886;2023-05-10T13:10:52;21.90;96.50
60701;DHT22;46541;49.894;10.886;2023-05-10T13:13:18;21.80;96.40
60701;DHT22;46541;49.894;10.886;2023-05-10T13:15:45;21.80;96.00
60701;DHT22;46541;49.894;10.886;2023-05-10T13:18:12;21.90;95.70
60701;DHT22;46541;49.894;10.886;2023-05-10T13:20:38;22.10;95.70
60701;DHT22;46541;49.894;10.886;2023-05-10T13:23:05;22.20;94.80
60701;DHT22;46541;49.894;10.886;2023-05-10T13:25:32;22.30;94.70
60701;DHT22;46541;49.894;10.886;2023-05-10T13:28:01;22.50;94.70
60701;DHT22;46541;49.894;10.886;2023-05-10T13:30:27;22.70;94.50
60701;DHT22;46541;49.894;10.886;2023-05-10T13:32:55;22.80;94.40
60701;DHT22;46541;49.894;10.886;2023-05-10T13:35:22;22.40;94.10
60701;DHT22;46541;49.894;10.886;2023-05-10T13:37:48;22.10;94.70
60701;DHT22;46541;49.894;10.886;2023-05-10T13:40:16;21.90;95.30
60701;DHT22;46541;49.894;10.886;2023-05-10T13:42:43;21.50;96.00
60701;DHT22;46541;49.894;10.886;2023-05-10T13:45:10;21.30;96.20
60701;DHT22;46541;49.894;10.886;2023-05-10T13:47:38;21.10;97.00
60701;DHT22;46541;49.894;10.886;2023-05-10T13:50:06;20.90;97.10
60701;DHT22;46541;49.894;10.886;2023-05-10T13:52:33;20.80;99.70
60701;DHT22;46541;49.894;10.886;2023-05-10T13:55:00;20.60;99.90
60701;DHT22;46541;49.894;10.886;2023-05-10T13:57:27;20.40;99.90
60701;DHT22;46541;49.894;10.886;2023-05-10T13:59:55;20.10;99.90
60701;DHT22;46541;49.894;10.886;2023-05-10T14:02:23;19.90;99.90
60701;DHT22;46541;49.894;10.886;2023-05-10T14:04:51;19.90;99.90
60701;DHT22;46541;49.894;10.886;2023-05-10T14:07:18;20.00;99.90
60701;DHT22;46541;49.894;10.886;2023-05-10T14:09:44;20.10;99.90
60701;DHT22;46541;49.894;10.886;2023-05-10T14:12:11;20.20;99.90
60701;DHT22;46541;49.894;10.886;2023-05-10T14:14:38;20.20;99.90
60701;DHT22;46541;49.894;10.886;2023-05-10T14:17:05;20.40;99.90
60701;DHT22;46541;49.894;10.886;2023-05-10T14:19:32;20.30;99.90
60701;DHT22;46541;49.894;10.886;2023-05-10T14:21:59;20.40;99.90
60701;DHT22;46541;49.894;10.886;2023-05-10T14:24:26;20.50;99.90
60701;DHT22;46541;49.894;10.886;2023-05-10T14:26:52;20.60;99.90
60701;DHT22;46541;49.894;10.886;2023-05-10T14:29:22;20.60;99.90
60701;DHT22;46541;49.894;10.886;2023-05-10T14:31:49;20.70;99.90
60701;DHT22;46541;49.894;10.886;2023-05-10T14:34:16;20.80;99.90
60701;DHT22;46541;49.894;10.886;2023-05-10T14:36:42;20.90;99.90
60701;DHT22;46541;49.894;10.886;2023-05-10T14:39:09;20.80;99.90
60701;DHT22;46541;49.894;10.886;2023-05-10T14:41:36;20.90;99.90
60701;DHT22;46541;49.894;10.886;2023-05-10T14:44:03;20.90;99.90
60701;DHT22;46541;49.894;10.886;2023-05-10T14:46:30;21.00;99.90
60701;DHT22;46541;49.894;10.886;2023-05-10T14:48:57;21.00;99.90
60701;DHT22;46541;49.894;10.886;2023-05-10T14:51:24;21.00;99.90
60701;DHT22;46541;49.894;10.886;2023-05-10T14:53:51;20.90;99.90
60701;DHT22;46541;49.894;10.886;2023-05-10T14:56:18;20.60;99.90
60701;DHT22;46541;49.894;10.886;2023-05-10T14:58:44;20.60;99.90
60701;DHT22;46541;49.894;10.886;2023-05-10T15:01:11;20.60;99.90
60701;DHT22;46541;49.894;10.886;2023-05-10T15:03:38;20.50;99.90
60701;DHT22;46541;49.894;10.886;2023-05-10T15:06:07;20.40;99.90
60701;DHT22;46541;49.894;10.886;2023-05-10T15:08:34;20.30;99.90
60701;DHT22;46541;49.894;10.886;2023-05-10T15:11:00;20.20;99.90
60701;DHT22;46541;49.894;10.886;2023-05-10T15:13:27;19.80;99.90
60701;DHT22;46541;49.894;10.886;2023-05-10T15:15:54;19.60;99.90
60701;DHT22;46541;49.894;10.886;2023-05-10T15:18:21;19.40;99.90
60701;DHT22;46541;49.894;10.886;2023-05-10T15:20:50;19.40;99.90
60701;DHT22;46541;49.894;10.886;2023-05-10T15:23:17;19.20;99.90
60701;DHT22;46541;49.894;10.886;2023-05-10T15:25:44;19.20;99.90
60701;DHT22;46541;49.894;10.886;2023-05-10T15:28:10;19.20;99.90
60701;DHT22;46541;49.894;10.886;2023-05-10T15:30:37;19.10;99.90
60701;DHT22;46541;49.894;10.886;2023-05-10T15:33:04;19.00;99.90
60701;DHT22;46541;49.894;10.886;2023-05-10T15:35:31;18.90;99.90
60701;DHT22;46541;49.894;10.886;2023-05-10T15:37:58;18.70;99.90
60701;DHT22;46541;49.894;10.886;2023-05-10T15:40:24;18.60;99.90
60701;DHT22;46541;49.894;10.886;2023-05-10T15:42:51;18.70;99.90